Main page
METAR-TAF:

METAR-TAF

Airports :

Hurlburt Field

Mary Esther, Florida, United States

latitude: 30-25N, longitude: 086-41W, elevation: 39 ft

Current weather observation

The report was made 20 minutes ago, at 08:56 UTC
Wind 7 mph from the North
Temperature 55°F
Humidity 88%
Pressure 30.03 in. Hg
Visibility: 10 miles
Clear sky

METAR: KHRT 240856Z 01006KT 10SM CLR 13/11 A3003 RMK AO2A SLP171 T01320111 53001

Time: 04:16 (09:16 UTC)

Forecast

The report was made 7 hours and 16 minutes ago, at 02:00 UTC
Forecast valid from 24 at 02 UTC to 25 at 08 UTC
Wind 7 mph from the North
Visibility 6.2 miles or more
Clear sky
Becoming
from 24 at 13 UTC to 24 at 14 UTC
Wind 10 mph from the Northeast
Visibility 6.2 miles or more
Clear sky

TAF: KHRT 240200Z 2402/2508 01006KT 9999 SKC QNH3000INS BECMG 2413/2414 05009KT 9999 SKC QNH2999INS TX28/2419Z TN14/2411Z

Weather observations and forecasts of more than 4000 airports (METAR and TAF reports).

The available stations are represented by yellow and red dots on the map.

Hover mouse over dot to see the name of the station.

Then click to see weather observations and forecasts.

To change the map : click on the green buttons with a black cross to zoom in, on the green button with a dash to zoom out, or on the green arrows for adjacent maps.


METAR-TAF: